createdAt,value
2023-05-21T00:11:21.329Z,28.34
2023-05-21T00:26:23.366Z,27.19
2023-05-21T00:41:25.492Z,27.98
2023-05-21T00:56:27.582Z,27.54
2023-05-21T01:11:29.670Z,27.35
2023-05-21T01:26:31.702Z,26.23
2023-05-21T01:41:33.706Z,27.23
2023-05-21T01:56:35.749Z,27.5
2023-05-21T02:11:37.858Z,27.73
2023-05-21T02:26:39.946Z,27.09
2023-05-21T02:41:42.004Z,26.05
2023-05-21T02:56:44.081Z,25.37
2023-05-21T03:11:46.112Z,24.59
2023-05-21T03:26:48.269Z,23.94
2023-05-21T03:41:50.383Z,23.41
2023-05-21T03:56:52.458Z,23.76
2023-05-21T04:11:54.511Z,23.15
2023-05-21T04:26:56.561Z,22.7
2023-05-21T04:41:58.736Z,22.69
2023-05-21T04:57:01.563Z,22.95
2023-05-21T05:12:03.618Z,22.92
2023-05-21T05:27:05.791Z,21.66
2023-05-21T05:42:07.923Z,21.92
2023-05-21T05:57:10.058Z,20.95
2023-05-21T06:12:14.912Z,22.09
2023-05-21T06:27:17.264Z,20.9
2023-05-21T06:42:19.333Z,21.48
2023-05-21T06:57:21.374Z,21.08
2023-05-21T07:12:23.486Z,20.77
2023-05-21T07:27:26.227Z,21.04
2023-05-21T07:42:28.473Z,21.08
2023-05-21T07:57:30.526Z,20.8
2023-05-21T08:12:32.686Z,20.62
2023-05-21T08:27:34.783Z,20.04
2023-05-21T08:42:37.756Z,20.16
2023-05-21T08:57:39.949Z,20.02
2023-05-21T09:12:42.034Z,19.59
2023-05-21T09:27:44.139Z,19.47
2023-05-21T09:42:46.217Z,19.3
2023-05-21T09:57:49.903Z,18.42
2023-05-21T10:12:53.036Z,18.7
2023-05-21T10:27:55.043Z,19.26
2023-05-21T10:42:57.147Z,18.27
2023-05-21T10:57:59.208Z,18.46
2023-05-21T11:13:01.330Z,18.93
2023-05-21T11:28:03.405Z,18.49
2023-05-21T11:43:05.485Z,18.32
2023-05-21T11:58:07.592Z,19.06
2023-05-21T12:13:09.716Z,18.15
2023-05-21T12:28:11.816Z,18.97
2023-05-21T12:43:13.898Z,18.59
2023-05-21T12:58:16.048Z,18.05
2023-05-21T13:13:18.148Z,18.25
2023-05-21T13:28:20.179Z,18.1
2023-05-21T13:43:22.221Z,17.98
2023-05-21T13:58:24.283Z,18.29
2023-05-21T14:13:26.386Z,19.33
2023-05-21T14:28:28.538Z,19.48
2023-05-21T14:43:30.578Z,20
2023-05-21T14:58:32.741Z,20.75
2023-05-21T15:13:34.831Z,20.12
2023-05-21T15:28:36.865Z,20.18
2023-05-21T15:43:38.954Z,18.48
2023-05-21T15:58:41.106Z,18.88
2023-05-21T16:13:43.147Z,19.1
2023-05-21T16:28:45.229Z,19.52
2023-05-21T16:43:47.319Z,19.75
2023-05-21T16:58:49.432Z,19.83
2023-05-21T17:13:51.539Z,20.68
2023-05-21T17:28:53.643Z,22.26
2023-05-21T17:43:55.704Z,23.04
2023-05-21T17:58:57.824Z,23.76
2023-05-21T18:13:59.914Z,24.37
2023-05-21T18:29:01.976Z,24.86
2023-05-21T18:44:04.031Z,25.46
2023-05-21T18:59:06.230Z,25.86
2023-05-21T19:14:08.333Z,27.05
2023-05-21T19:29:10.439Z,27.35
2023-05-21T19:44:12.505Z,27.95
2023-05-21T19:59:14.667Z,28
2023-05-21T20:14:16.732Z,28.64
2023-05-21T20:29:18.836Z,28.17
2023-05-21T20:44:21.030Z,29.69
2023-05-21T20:59:23.106Z,29.18
2023-05-21T21:14:25.145Z,28.38
2023-05-21T21:29:27.196Z,28.74
2023-05-21T21:44:29.276Z,29.62
2023-05-21T21:59:31.396Z,28.78
2023-05-21T22:14:33.583Z,29.23
2023-05-21T22:29:35.723Z,25.03
2023-05-21T22:44:37.930Z,23.88
2023-05-21T22:59:40.062Z,23.44
2023-05-21T23:14:42.127Z,24.72
2023-05-21T23:29:44.337Z,23.61
2023-05-21T23:44:46.559Z,24.63
2023-05-21T23:59:48.743Z,24.1
